createdAt,value
2022-12-23T00:01:16.962Z,10.80
2022-12-23T00:03:45.025Z,10.35
2022-12-23T00:06:17.293Z,10.20
2022-12-23T00:08:44.968Z,10.30
2022-12-23T00:11:14.161Z,10.05
2022-12-23T00:14:03.050Z,9.32
2022-12-23T00:16:36.713Z,10.48
2022-12-23T00:19:04.536Z,10.63
2022-12-23T00:21:32.433Z,8.30
2022-12-23T00:24:08.888Z,10.13
2022-12-23T00:26:36.036Z,10.27
2022-12-23T00:29:03.244Z,11.70
2022-12-23T00:31:30.503Z,10.40
2022-12-23T00:33:57.728Z,9.90
2022-12-23T00:36:28.012Z,10.30
2022-12-23T00:39:14.493Z,10.57
2022-12-23T00:42:06.173Z,10.02
2022-12-23T00:44:33.748Z,10.77
2022-12-23T00:47:01.287Z,10.67
2022-12-23T00:49:43.578Z,10.95
2022-12-23T00:52:12.277Z,10.25
2022-12-23T00:54:39.568Z,10.68
2022-12-23T00:57:06.757Z,11.35
2022-12-23T00:59:34.255Z,10.70
2022-12-23T01:02:21.153Z,11.13
2022-12-23T01:05:07.089Z,10.65
2022-12-23T01:07:34.302Z,10.82
2022-12-23T01:10:01.436Z,11.02
2022-12-23T01:12:28.658Z,10.57
2022-12-23T01:14:55.782Z,10.55
2022-12-23T01:17:23.016Z,10.15
2022-12-23T01:19:51.345Z,10.35
2022-12-23T01:22:18.545Z,10.25
2022-12-23T01:24:45.691Z,11.10
2022-12-23T01:27:12.820Z,11.10
2022-12-23T01:29:40.102Z,11.20
2022-12-23T01:32:08.029Z,10.95
2022-12-23T01:34:37.560Z,11.07
2022-12-23T01:37:05.274Z,11.37
2022-12-23T01:39:32.517Z,11.13
2022-12-23T01:42:18.791Z,11.77
2022-12-23T01:44:52.304Z,11.18
2022-12-23T01:47:39.932Z,11.48
2022-12-23T01:50:10.398Z,11.17
2022-12-23T01:52:50.309Z,11.48
2022-12-23T01:55:23.385Z,10.48
2022-12-23T01:57:51.343Z,11.10
2022-12-23T02:00:37.746Z,11.77
2022-12-23T02:03:26.838Z,11.23
2022-12-23T02:06:17.780Z,11.57
2022-12-23T02:09:07.169Z,11.25
2022-12-23T02:11:39.891Z,11.70
2022-12-23T02:14:29.054Z,10.50
2022-12-23T02:17:03.821Z,10.67
2022-12-23T02:19:59.199Z,9.27
2022-12-23T02:22:44.464Z,9.65
2022-12-23T02:25:11.553Z,9.32
2022-12-23T02:28:03.036Z,9.27
2022-12-23T02:30:36.341Z,9.27
2022-12-23T02:33:19.596Z,9.27
2022-12-23T02:36:07.479Z,8.35
2022-12-23T02:38:53.674Z,8.55
2022-12-23T02:41:26.433Z,7.18
2022-12-23T02:44:10.696Z,6.73
2022-12-23T02:46:43.035Z,6.32
2022-12-23T02:49:16.964Z,6.63
2022-12-23T02:52:01.850Z,6.72
2022-12-23T02:54:35.621Z,6.60
2022-12-23T02:57:08.092Z,6.87
2022-12-23T02:59:38.229Z,7.05
2022-12-23T03:02:05.573Z,7.72
2022-12-23T03:04:33.444Z,7.25
2022-12-23T03:07:07.146Z,7.90
2022-12-23T03:09:48.421Z,7.50
2022-12-23T03:12:41.333Z,7.70
2022-12-23T03:15:08.738Z,6.93
2022-12-23T03:17:56.148Z,6.72
2022-12-23T03:20:26.719Z,7.22
2022-12-23T03:23:04.890Z,6.70
2022-12-23T03:25:50.948Z,6.75
2022-12-23T03:28:38.825Z,7.03
2022-12-23T03:31:08.906Z,6.18
2022-12-23T03:33:38.333Z,7.05
2022-12-23T03:36:11.728Z,6.43
2022-12-23T03:38:41.306Z,6.20
2022-12-23T03:41:20.292Z,6.28
2022-12-23T03:43:51.145Z,6.40
2022-12-23T03:46:29.912Z,5.88
2022-12-23T03:48:59.058Z,5.83
2022-12-23T03:51:33.541Z,6.22
2022-12-23T03:54:04.257Z,5.95
2022-12-23T03:56:43.426Z,6.03
2022-12-23T03:59:24.269Z,6.47
2022-12-23T04:02:02.563Z,6.10
2022-12-23T04:04:48.882Z,6.20
2022-12-23T04:07:24.793Z,6.00
2022-12-23T04:09:53.241Z,7.47
2022-12-23T04:12:22.724Z,6.90
2022-12-23T04:14:50.991Z,6.27
2022-12-23T04:17:18.950Z,6.95
2022-12-23T04:19:50.684Z,7.20
2022-12-23T04:22:19.172Z,6.90
2022-12-23T04:24:46.629Z,7.63
2022-12-23T04:27:14.962Z,7.93
2022-12-23T04:29:42.340Z,7.70
2022-12-23T04:32:09.901Z,7.90
2022-12-23T04:34:37.166Z,8.35
2022-12-23T04:37:04.348Z,8.85
2022-12-23T04:39:31.662Z,8.00
2022-12-23T04:41:59.164Z,8.25
2022-12-23T04:44:26.540Z,8.68
2022-12-23T04:46:53.978Z,8.52
2022-12-23T04:49:22.551Z,8.82
2022-12-23T04:51:49.869Z,8.50
2022-12-23T04:54:17.390Z,8.65
2022-12-23T04:56:44.655Z,9.05
2022-12-23T04:59:12.042Z,9.93
2022-12-23T05:01:39.426Z,8.82
2022-12-23T05:04:06.916Z,8.43
2022-12-23T05:06:34.239Z,8.90
2022-12-23T05:09:01.634Z,8.75
2022-12-23T05:11:30.046Z,9.70
2022-12-23T05:13:57.582Z,9.35
2022-12-23T05:16:24.998Z,8.83
2022-12-23T05:18:52.570Z,8.50
2022-12-23T05:21:19.826Z,9.38
2022-12-23T05:23:47.137Z,8.70
2022-12-23T05:26:14.433Z,9.05
2022-12-23T05:28:42.970Z,8.97
2022-12-23T05:31:11.277Z,9.00
2022-12-23T05:33:38.538Z,8.20
2022-12-23T05:36:06.004Z,8.73
2022-12-23T05:38:33.197Z,8.18
2022-12-23T05:41:00.466Z,8.53
2022-12-23T05:43:27.687Z,8.35
2022-12-23T05:45:54.967Z,8.25
2022-12-23T05:48:22.382Z,8.75
2022-12-23T05:50:51.038Z,9.20
2022-12-23T05:53:18.738Z,9.03
2022-12-23T05:55:45.981Z,9.13
2022-12-23T05:58:13.144Z,9.65
2022-12-23T06:00:40.302Z,9.23
2022-12-23T06:03:07.732Z,9.27
2022-12-23T06:05:37.729Z,9.17
2022-12-23T06:08:05.219Z,9.00
2022-12-23T06:10:32.421Z,9.43
2022-12-23T06:12:59.634Z,9.23
2022-12-23T06:15:26.822Z,8.98
2022-12-23T06:17:56.344Z,8.97
2022-12-23T06:20:23.524Z,8.73
2022-12-23T06:22:50.855Z,9.40
2022-12-23T06:25:18.052Z,8.90
2022-12-23T06:27:45.322Z,8.75
2022-12-23T06:30:12.517Z,9.43
2022-12-23T06:32:39.834Z,8.68
2022-12-23T06:35:07.893Z,9.95
2022-12-23T06:37:35.407Z,9.43
2022-12-23T06:40:02.863Z,8.98
2022-12-23T06:42:30.100Z,10.10
2022-12-23T06:44:57.290Z,9.05
2022-12-23T06:47:24.414Z,8.50
2022-12-23T06:49:51.615Z,9.57
2022-12-23T06:52:18.770Z,9.25
2022-12-23T06:54:45.908Z,10.87
2022-12-23T06:57:13.483Z,9.32
2022-12-23T06:59:40.730Z,9.55
2022-12-23T07:02:08.104Z,9.32
2022-12-23T07:04:35.730Z,10.02
2022-12-23T07:07:02.878Z,9.63
2022-12-23T07:09:30.033Z,9.77
2022-12-23T07:11:57.203Z,10.43
2022-12-23T07:14:24.393Z,10.32
2022-12-23T07:16:51.822Z,10.65
2022-12-23T07:19:21.559Z,10.30
2022-12-23T07:21:48.722Z,10.38
2022-12-23T07:24:15.971Z,11.57
2022-12-23T07:26:43.106Z,10.68
2022-12-23T07:29:10.306Z,10.73
2022-12-23T07:31:40.960Z,11.50
2022-12-23T07:34:09.044Z,11.35
2022-12-23T07:36:36.601Z,10.93
2022-12-23T07:39:03.959Z,9.75
2022-12-23T07:41:31.323Z,10.15
2022-12-23T07:43:58.851Z,10.53
2022-12-23T07:46:26.161Z,10.77
2022-12-23T07:48:53.542Z,11.38
2022-12-23T07:51:20.824Z,11.05
2022-12-23T07:53:52.546Z,11.65
2022-12-23T07:56:21.368Z,10.97
2022-12-23T07:58:52.527Z,11.23
2022-12-23T08:01:20.032Z,11.48
2022-12-23T08:03:47.682Z,11.75
2022-12-23T08:06:15.418Z,10.93
2022-12-23T08:08:44.093Z,11.93
2022-12-23T08:11:12.011Z,10.95
2022-12-23T08:13:41.964Z,10.98
2022-12-23T08:16:10.425Z,12.07
2022-12-23T08:18:39.062Z,12.68
2022-12-23T08:21:08.299Z,11.90
2022-12-23T08:23:36.391Z,12.43
2022-12-23T08:26:07.989Z,11.50
2022-12-23T08:28:36.014Z,10.93
2022-12-23T08:31:07.331Z,11.43
2022-12-23T08:33:35.430Z,10.90
2022-12-23T08:36:03.266Z,10.93
2022-12-23T08:38:33.310Z,11.23
2022-12-23T08:41:00.967Z,11.20
2022-12-23T08:43:35.790Z,11.60
2022-12-23T08:46:03.888Z,10.47
2022-12-23T08:48:31.399Z,10.88
2022-12-23T08:50:58.591Z,11.13
2022-12-23T08:53:25.809Z,10.23
2022-12-23T08:55:53.038Z,10.85
2022-12-23T08:58:20.505Z,11.47
2022-12-23T09:00:51.120Z,12.48
2022-12-23T09:03:18.406Z,11.50
2022-12-23T09:05:45.734Z,13.00
2022-12-23T09:08:12.856Z,14.38
2022-12-23T09:10:49.505Z,12.73
2022-12-23T09:13:26.349Z,12.40
2022-12-23T09:15:58.295Z,13.13
2022-12-23T09:18:25.711Z,12.00
2022-12-23T09:21:02.583Z,13.40
2022-12-23T09:23:32.561Z,11.83
2022-12-23T09:26:02.166Z,12.85
2022-12-23T09:28:29.273Z,11.50
2022-12-23T09:30:56.718Z,11.45
2022-12-23T09:33:26.424Z,11.02
2022-12-23T09:35:53.554Z,10.50
2022-12-23T09:38:20.723Z,10.85
2022-12-23T09:40:48.182Z,9.73
2022-12-23T09:43:15.402Z,9.48
2022-12-23T09:45:56.616Z,9.27
2022-12-23T09:48:26.651Z,7.30
2022-12-23T09:50:54.449Z,8.25
2022-12-23T09:53:23.756Z,8.55
2022-12-23T09:55:58.807Z,8.02
2022-12-23T09:58:26.276Z,7.95
2022-12-23T10:01:12.514Z,6.77
2022-12-23T10:03:58.500Z,7.50
2022-12-23T10:06:30.041Z,7.38
2022-12-23T10:09:02.971Z,9.32
2022-12-23T10:11:35.060Z,8.80
2022-12-23T10:14:13.249Z,8.23
2022-12-23T10:16:45.368Z,8.00
2022-12-23T10:19:22.385Z,8.52
2022-12-23T10:21:51.378Z,9.32
2022-12-23T10:24:45.161Z,10.27
2022-12-23T10:27:21.665Z,10.23
2022-12-23T10:29:49.079Z,9.70
2022-12-23T10:32:49.233Z,10.05
2022-12-23T10:35:22.921Z,10.13
2022-12-23T10:37:57.926Z,11.02
2022-12-23T10:40:39.625Z,10.73
2022-12-23T10:43:28.855Z,11.30
2022-12-23T10:46:08.978Z,10.77
2022-12-23T10:48:56.499Z,12.55
2022-12-23T10:51:30.770Z,12.23
2022-12-23T10:54:07.186Z,11.90
2022-12-23T10:56:34.907Z,12.15
2022-12-23T10:59:03.283Z,12.18
2022-12-23T11:01:44.385Z,12.25
2022-12-23T11:04:15.885Z,12.27
2022-12-23T11:07:26.400Z,13.67
2022-12-23T11:09:48.768Z,12.73
2022-12-23T11:12:15.982Z,12.68
2022-12-23T11:14:52.016Z,13.10
2022-12-23T11:17:21.518Z,13.35
2022-12-23T11:19:49.402Z,12.77
2022-12-23T11:22:28.003Z,13.32
2022-12-23T11:24:56.652Z,14.20
2022-12-23T11:27:24.175Z,13.25
2022-12-23T11:29:54.686Z,15.15
2022-12-23T11:32:24.983Z,13.77
2022-12-23T11:34:53.077Z,13.52
2022-12-23T11:37:42.249Z,15.60
2022-12-23T11:40:21.633Z,15.48
2022-12-23T11:42:53.473Z,15.43
2022-12-23T11:45:25.574Z,16.07
2022-12-23T11:47:53.167Z,17.05
2022-12-23T11:50:40.967Z,17.17
2022-12-23T11:53:13.393Z,15.80
2022-12-23T11:55:45.987Z,17.02
2022-12-23T11:58:22.918Z,16.33
2022-12-23T12:00:56.039Z,17.25
2022-12-23T12:03:26.717Z,17.73
2022-12-23T12:05:56.442Z,17.45
2022-12-23T12:08:25.979Z,16.00
2022-12-23T12:10:54.042Z,15.83
2022-12-23T12:13:31.635Z,15.68
2022-12-23T12:16:14.300Z,15.45
2022-12-23T12:18:42.705Z,15.40
2022-12-23T12:21:13.944Z,15.82
2022-12-23T12:23:44.346Z,14.20
2022-12-23T12:26:14.581Z,14.82
2022-12-23T12:28:43.201Z,14.02
2022-12-23T12:31:19.948Z,13.82
2022-12-23T12:33:54.497Z,13.95
2022-12-23T12:36:40.183Z,14.43
2022-12-23T12:39:14.177Z,17.63
2022-12-23T12:41:49.140Z,13.43
2022-12-23T12:44:39.833Z,13.52
2022-12-23T12:47:28.507Z,12.13
2022-12-23T12:50:03.317Z,11.77
2022-12-23T12:52:33.882Z,13.02
2022-12-23T12:55:14.051Z,12.68
2022-12-23T12:57:42.067Z,11.73
2022-12-23T13:00:20.375Z,10.82
2022-12-23T13:02:54.838Z,9.87
2022-12-23T13:05:41.071Z,11.00
2022-12-23T13:08:20.741Z,9.88
2022-12-23T13:10:54.969Z,9.43
2022-12-23T13:13:41.193Z,10.35
2022-12-23T13:16:17.684Z,9.00
2022-12-23T13:18:53.080Z,10.05
2022-12-23T13:21:23.124Z,9.90
2022-12-23T13:23:59.242Z,10.40
2022-12-23T13:26:41.505Z,9.77
2022-12-23T13:29:24.575Z,10.10
2022-12-23T13:32:15.768Z,9.07
2022-12-23T13:35:01.925Z,10.48
2022-12-23T13:38:08.036Z,9.95
2022-12-23T13:40:44.146Z,10.00
2022-12-23T13:43:15.592Z,9.03
2022-12-23T13:45:43.851Z,8.48
2022-12-23T13:48:29.547Z,8.45
2022-12-23T13:50:56.776Z,8.88
2022-12-23T13:53:45.023Z,13.50
2022-12-23T13:56:27.405Z,8.37
2022-12-23T13:58:55.071Z,8.75
2022-12-23T14:01:36.358Z,11.57
2022-12-23T14:04:39.635Z,7.93
2022-12-23T14:07:21.430Z,9.07
2022-12-23T14:09:55.361Z,8.77
2022-12-23T14:12:30.327Z,8.95
2022-12-23T14:15:06.925Z,8.75
2022-12-23T14:18:02.552Z,8.23
2022-12-23T14:20:42.249Z,8.68
2022-12-23T14:23:22.369Z,7.80
2022-12-23T14:25:58.426Z,7.05
2022-12-23T14:28:36.306Z,8.45
2022-12-23T14:31:05.719Z,7.53
2022-12-23T14:33:34.724Z,7.63
2022-12-23T14:36:20.739Z,9.30
2022-12-23T14:39:06.867Z,8.13
2022-12-23T14:41:42.454Z,7.38
2022-12-23T14:44:21.244Z,7.13
2022-12-23T14:46:49.136Z,8.52
2022-12-23T14:49:39.005Z,8.20
2022-12-23T14:52:28.798Z,7.88
2022-12-23T14:55:28.564Z,7.35
2022-12-23T14:57:44.624Z,7.68
2022-12-23T15:00:14.469Z,8.52
2022-12-23T15:02:41.735Z,8.63
2022-12-23T15:05:09.538Z,6.63
2022-12-23T15:07:47.497Z,8.35
2022-12-23T15:10:26.996Z,8.05
2022-12-23T15:12:56.974Z,8.07
2022-12-23T15:15:26.436Z,8.10
2022-12-23T15:18:04.651Z,9.45
2022-12-23T15:20:31.999Z,8.02
2022-12-23T15:23:03.418Z,7.68
2022-12-23T15:25:35.793Z,8.40
2022-12-23T15:28:04.597Z,13.57
2022-12-23T15:30:39.667Z,8.30
2022-12-23T15:33:27.961Z,8.57
2022-12-23T15:35:55.668Z,8.90
2022-12-23T15:38:27.572Z,13.32
2022-12-23T15:41:07.534Z,14.93
2022-12-23T15:43:41.405Z,10.93
2022-12-23T15:46:10.757Z,12.30
2022-12-23T15:48:41.467Z,12.13
2022-12-23T15:51:13.343Z,10.30
2022-12-23T15:53:41.878Z,9.88
2022-12-23T15:56:11.187Z,10.30
2022-12-23T15:58:44.367Z,9.23
2022-12-23T16:01:34.323Z,7.95
2022-12-23T16:04:03.455Z,7.25
2022-12-23T16:06:34.083Z,6.53
2022-12-23T16:09:03.017Z,6.50
2022-12-23T16:12:09.023Z,7.13
2022-12-23T16:14:43.135Z,7.72
2022-12-23T16:17:11.440Z,13.32
2022-12-23T16:19:40.566Z,8.45
2022-12-23T16:22:20.842Z,7.50
2022-12-23T16:24:49.978Z,7.45
2022-12-23T16:27:20.977Z,7.30
2022-12-23T16:29:49.411Z,7.57
2022-12-23T16:32:22.949Z,7.80
2022-12-23T16:34:52.005Z,6.93
2022-12-23T16:37:21.775Z,7.93
2022-12-23T16:39:48.954Z,7.28
2022-12-23T16:42:16.146Z,7.30
2022-12-23T16:44:43.348Z,8.77
2022-12-23T16:47:16.039Z,9.30
2022-12-23T16:49:46.555Z,7.78
2022-12-23T16:52:14.944Z,10.13
2022-12-23T16:54:42.990Z,8.60
2022-12-23T16:57:11.291Z,8.07
2022-12-23T16:59:42.331Z,6.90
2022-12-23T17:02:19.694Z,7.82
2022-12-23T17:04:47.564Z,8.50
2022-12-23T17:07:16.817Z,9.60
2022-12-23T17:09:47.311Z,8.73
2022-12-23T17:12:14.548Z,8.15
2022-12-23T17:14:43.210Z,9.20
2022-12-23T17:17:18.297Z,9.90
2022-12-23T17:19:48.734Z,8.90
2022-12-23T17:22:16.182Z,9.77
2022-12-23T17:24:43.448Z,9.83
2022-12-23T17:27:15.009Z,10.93
2022-12-23T17:29:42.409Z,9.90
2022-12-23T17:32:19.681Z,10.07
2022-12-23T17:34:47.019Z,10.13
2022-12-23T17:37:14.265Z,8.90
2022-12-23T17:39:42.277Z,10.27
2022-12-23T17:42:21.747Z,8.88
2022-12-23T17:44:52.559Z,7.70
2022-12-23T17:47:22.477Z,7.63
2022-12-23T17:49:50.174Z,7.60
2022-12-23T17:52:21.972Z,6.88
2022-12-23T17:54:50.529Z,5.78
2022-12-23T17:57:19.839Z,6.90
2022-12-23T17:59:48.039Z,5.20
2022-12-23T18:02:23.196Z,5.17
2022-12-23T18:04:53.064Z,5.25
2022-12-23T18:07:20.627Z,4.75
2022-12-23T18:09:48.234Z,5.38
2022-12-23T18:12:31.417Z,5.25
2022-12-23T18:14:58.751Z,5.00
2022-12-23T18:17:25.954Z,4.07
2022-12-23T18:19:53.104Z,5.40
2022-12-23T18:22:26.995Z,4.63
2022-12-23T18:24:59.057Z,5.10
2022-12-23T18:27:26.802Z,4.60
2022-12-23T18:29:54.049Z,5.63
2022-12-23T18:32:27.214Z,5.50
2022-12-23T18:34:55.472Z,5.90
2022-12-23T18:37:28.586Z,6.15
2022-12-23T18:39:55.846Z,5.13
2022-12-23T18:42:23.147Z,4.95
2022-12-23T18:44:50.566Z,4.57
2022-12-23T18:47:17.978Z,4.80
2022-12-23T18:49:45.360Z,4.13
2022-12-23T18:52:13.858Z,4.47
2022-12-23T18:54:41.495Z,4.30
2022-12-23T18:57:11.232Z,4.28
2022-12-23T18:59:39.754Z,4.57
2022-12-23T19:02:07.057Z,4.25
2022-12-23T19:04:34.401Z,5.23
2022-12-23T19:07:01.618Z,4.35
2022-12-23T19:09:28.764Z,4.22
2022-12-23T19:11:55.989Z,4.35
2022-12-23T19:14:23.398Z,3.90
2022-12-23T19:16:52.222Z,5.27
2022-12-23T19:19:19.693Z,4.53
2022-12-23T19:21:46.859Z,4.30
2022-12-23T19:24:14.023Z,4.53
2022-12-23T19:26:41.276Z,5.97
2022-12-23T19:29:09.019Z,4.07
2022-12-23T19:31:36.226Z,4.47
2022-12-23T19:34:03.630Z,3.50
2022-12-23T19:36:31.267Z,4.13
2022-12-23T19:38:58.767Z,4.50
2022-12-23T19:41:26.243Z,3.73
2022-12-23T19:43:53.472Z,5.35
2022-12-23T19:46:20.889Z,4.22
2022-12-23T19:48:56.023Z,4.20
2022-12-23T19:51:24.751Z,4.47
2022-12-23T19:53:54.762Z,4.87
2022-12-23T19:56:22.358Z,3.85
2022-12-23T19:58:49.978Z,4.60
2022-12-23T20:01:18.403Z,3.22
2022-12-23T20:03:46.465Z,4.35
2022-12-23T20:06:24.512Z,3.60
2022-12-23T20:08:56.341Z,4.88
2022-12-23T20:11:30.374Z,4.20
2022-12-23T20:13:58.389Z,4.20
2022-12-23T20:16:25.784Z,4.03
2022-12-23T20:18:53.262Z,3.73
2022-12-23T20:21:20.653Z,3.47
2022-12-23T20:23:48.124Z,3.10
2022-12-23T20:26:16.114Z,3.60
2022-12-23T20:28:43.443Z,3.38
2022-12-23T20:31:13.658Z,2.83
2022-12-23T20:33:42.731Z,3.08
2022-12-23T20:36:12.470Z,3.45
2022-12-23T20:38:41.548Z,2.50
2022-12-23T20:41:10.376Z,2.80
2022-12-23T20:43:40.321Z,2.67
2022-12-23T20:46:09.844Z,2.35
2022-12-23T20:48:37.082Z,2.75
2022-12-23T20:51:14.584Z,3.00
2022-12-23T20:53:45.372Z,3.15
2022-12-23T20:56:13.848Z,2.63
2022-12-23T20:59:16.552Z,3.15
2022-12-23T21:01:43.781Z,3.22
2022-12-23T21:04:12.928Z,2.60
2022-12-23T21:06:40.599Z,2.70
2022-12-23T21:09:08.925Z,2.90
2022-12-23T21:11:39.282Z,2.20
2022-12-23T21:14:07.911Z,3.03
2022-12-23T21:16:39.550Z,2.80
2022-12-23T21:19:07.932Z,3.05
2022-12-23T21:21:35.199Z,3.37
2022-12-23T21:24:04.694Z,2.60
2022-12-23T21:26:33.410Z,2.50
2022-12-23T21:29:01.586Z,2.55
2022-12-23T21:31:30.092Z,2.75
2022-12-23T21:33:58.427Z,3.17
2022-12-23T21:36:27.340Z,3.15
2022-12-23T21:38:55.053Z,2.65
2022-12-23T21:41:25.083Z,2.20
2022-12-23T21:43:53.285Z,2.30
2022-12-23T21:46:22.559Z,2.23
2022-12-23T21:48:50.593Z,2.45
2022-12-23T21:51:19.036Z,2.55
2022-12-23T21:53:47.271Z,2.80
2022-12-23T21:56:15.888Z,2.85
2022-12-23T21:58:45.302Z,2.27
2022-12-23T22:01:13.076Z,2.35
2022-12-23T22:03:46.759Z,2.60
2022-12-23T22:06:15.864Z,2.58
2022-12-23T22:08:43.110Z,2.58
2022-12-23T22:11:11.577Z,3.00
2022-12-23T22:13:38.939Z,2.70
2022-12-23T22:16:10.697Z,3.13
2022-12-23T22:18:39.284Z,2.72
2022-12-23T22:21:09.397Z,2.20
2022-12-23T22:23:38.248Z,2.70
2022-12-23T22:26:06.250Z,2.40
2022-12-23T22:28:37.271Z,2.58
2022-12-23T22:31:05.872Z,2.22
2022-12-23T22:33:33.780Z,2.38
2022-12-23T22:36:01.386Z,2.30
2022-12-23T22:38:30.386Z,2.22
2022-12-23T22:41:02.770Z,2.40
2022-12-23T22:43:34.250Z,2.10
2022-12-23T22:46:02.114Z,2.30
2022-12-23T22:48:30.648Z,2.10
2022-12-23T22:51:25.247Z,3.25
2022-12-23T22:53:52.706Z,2.42
2022-12-23T22:56:23.843Z,2.22
2022-12-23T22:58:52.280Z,2.45
2022-12-23T23:01:23.900Z,2.17
2022-12-23T23:03:57.620Z,2.33
2022-12-23T23:06:26.871Z,2.45
2022-12-23T23:08:54.928Z,1.98
2022-12-23T23:11:23.438Z,2.40
2022-12-23T23:13:51.005Z,2.30
2022-12-23T23:16:20.841Z,2.90
2022-12-23T23:18:48.236Z,2.33
2022-12-23T23:21:16.021Z,2.15
2022-12-23T23:23:43.281Z,2.20
2022-12-23T23:26:10.467Z,2.67
2022-12-23T23:28:39.319Z,2.75
2022-12-23T23:31:40.477Z,3.78
2022-12-23T23:33:57.991Z,2.60
2022-12-23T23:36:25.474Z,2.80
2022-12-23T23:38:52.682Z,3.23
2022-12-23T23:41:23.165Z,3.08
2022-12-23T23:43:51.149Z,2.42
2022-12-23T23:46:18.557Z,2.55
2022-12-23T23:48:51.702Z,3.33
2022-12-23T23:51:19.638Z,2.93
2022-12-23T23:53:50.007Z,2.88
2022-12-23T23:56:23.748Z,2.65
2022-12-23T23:58:58.013Z,3.33
